createdAt,value
2023-12-30T00:00:33.816Z,100436.78
2023-12-30T00:03:00.689Z,100446.66
2023-12-30T00:05:30.746Z,100443.06
2023-12-30T00:07:57.370Z,100439.47
2023-12-30T00:10:24.113Z,100447.50
2023-12-30T00:12:52.444Z,100452.78
2023-12-30T00:15:20.765Z,100450.13
2023-12-30T00:17:47.522Z,100443.06
2023-12-30T00:20:14.299Z,100437.75
2023-12-30T00:22:40.994Z,100441.28
2023-12-30T00:25:08.613Z,100451.06
2023-12-30T00:27:35.327Z,100445.75
2023-12-30T00:30:01.967Z,100451.97
2023-12-30T00:32:28.554Z,100459.06
2023-12-30T00:34:55.222Z,100457.38
2023-12-30T00:37:22.181Z,100460.88
2023-12-30T00:39:48.996Z,100462.63
2023-12-30T00:42:15.668Z,100467.97
2023-12-30T00:44:42.317Z,100464.47
2023-12-30T00:47:08.912Z,100466.31
2023-12-30T00:49:35.523Z,100461.75
2023-12-30T00:52:02.222Z,100466.25
2023-12-30T00:54:35.003Z,100471.59
2023-12-30T00:57:05.121Z,100469.75
2023-12-30T00:59:31.703Z,100464.41
2023-12-30T01:01:58.428Z,100476.00
2023-12-30T01:04:25.161Z,100467.13
2023-12-30T01:06:52.796Z,100471.47
2023-12-30T01:09:19.446Z,100471.63
2023-12-30T01:11:46.963Z,100470.69
2023-12-30T01:14:13.755Z,100476.00
2023-12-30T01:16:40.347Z,100466.31
2023-12-30T01:19:07.032Z,100470.78
2023-12-30T01:21:33.668Z,100477.88
2023-12-30T01:24:00.876Z,100476.91
2023-12-30T01:26:27.450Z,100484.13
2023-12-30T01:28:54.075Z,100472.56
2023-12-30T01:31:20.838Z,100480.53
2023-12-30T01:33:47.656Z,100472.53
2023-12-30T01:36:14.898Z,100480.50
2023-12-30T01:38:42.923Z,100491.19
2023-12-30T01:41:09.890Z,100484.97
2023-12-30T01:43:38.289Z,100484.00
2023-12-30T01:46:06.882Z,100492.91
2023-12-30T01:48:33.638Z,100484.06
2023-12-30T01:51:01.816Z,100485.78
2023-12-30T01:53:29.769Z,100483.13
2023-12-30T01:55:58.521Z,100491.25
2023-12-30T01:58:25.374Z,100497.47
2023-12-30T02:00:55.461Z,100493.06
2023-12-30T02:03:25.356Z,100501.94
2023-12-30T02:05:52.133Z,100499.31
2023-12-30T02:08:19.329Z,100505.44
2023-12-30T02:10:47.419Z,100510.88
2023-12-30T02:13:14.038Z,100521.47
2023-12-30T02:15:40.675Z,100530.31
2023-12-30T02:18:07.438Z,100529.44
2023-12-30T02:20:34.878Z,100529.47
2023-12-30T02:23:01.978Z,100537.50
2023-12-30T02:25:28.880Z,100534.84
2023-12-30T02:27:55.532Z,100541.06
2023-12-30T02:30:25.218Z,100541.06
2023-12-30T02:32:52.397Z,100546.34
2023-12-30T02:35:19.316Z,100537.47
2023-12-30T02:37:46.301Z,100548.22
2023-12-30T02:40:12.956Z,100552.59
2023-12-30T02:42:40.534Z,100539.34
2023-12-30T02:45:07.916Z,100550.88
2023-12-30T02:47:34.790Z,100552.63
2023-12-30T02:50:01.535Z,100556.16
2023-12-30T02:52:28.335Z,100556.16
2023-12-30T02:54:55.093Z,100560.59
2023-12-30T02:57:21.854Z,100560.59
2023-12-30T02:59:48.594Z,100555.28
2023-12-30T03:02:15.242Z,100555.28
2023-12-30T03:04:41.907Z,100560.59
2023-12-30T03:07:08.981Z,100568.59
2023-12-30T03:09:36.103Z,100563.34
2023-12-30T03:12:06.323Z,100565.94
2023-12-30T03:14:32.932Z,100565.94
2023-12-30T03:16:59.533Z,100568.63
2023-12-30T03:19:26.219Z,100574.84
2023-12-30T03:21:52.983Z,100574.84
2023-12-30T03:24:19.741Z,100575.69
2023-12-30T03:26:46.347Z,100581.97
2023-12-30T03:29:13.407Z,100587.25
2023-12-30T03:31:40.960Z,100578.44
2023-12-30T03:34:08.171Z,100576.63
2023-12-30T03:36:36.436Z,100575.72
2023-12-30T03:39:03.860Z,100580.22
2023-12-30T03:41:30.541Z,100589.03
2023-12-30T03:43:57.901Z,100581.97
2023-12-30T03:46:24.535Z,100588.19
2023-12-30T03:48:51.296Z,100584.63
2023-12-30T03:51:18.009Z,100589.09
2023-12-30T03:53:44.655Z,100602.44
2023-12-30T03:56:13.081Z,100584.63
2023-12-30T03:58:39.866Z,100596.16
2023-12-30T04:01:06.549Z,100594.38
2023-12-30T04:03:33.247Z,100593.47
2023-12-30T04:05:59.829Z,100592.63
2023-12-30T04:08:26.436Z,100597.06
2023-12-30T04:10:53.900Z,100611.25
2023-12-30T04:13:20.575Z,100614.00
2023-12-30T04:15:47.224Z,100607.72
2023-12-30T04:18:14.856Z,100604.22
2023-12-30T04:20:41.544Z,100611.28
2023-12-30T04:23:08.179Z,100606.84
2023-12-30T04:25:34.970Z,100605.03
2023-12-30T04:28:01.658Z,100607.78
2023-12-30T04:30:28.324Z,100626.38
2023-12-30T04:32:55.003Z,100613.91
2023-12-30T04:35:21.704Z,100617.50
2023-12-30T04:37:48.370Z,100628.13
2023-12-30T04:40:15.009Z,100629.97
2023-12-30T04:42:41.661Z,100629.09
2023-12-30T04:45:13.647Z,100621.06
2023-12-30T04:47:41.029Z,100628.16
2023-12-30T04:50:08.344Z,100645.00
2023-12-30T04:52:36.051Z,100638.84
2023-12-30T04:55:04.156Z,100637.03
2023-12-30T04:57:30.965Z,100649.53
2023-12-30T04:59:57.559Z,100651.28
2023-12-30T05:02:24.170Z,100653.94
2023-12-30T05:04:52.009Z,100651.28
2023-12-30T05:07:18.655Z,100658.38
2023-12-30T05:09:45.271Z,100660.16
2023-12-30T05:12:14.029Z,100663.72
2023-12-30T05:14:40.651Z,100670.78
2023-12-30T05:17:07.245Z,100667.22
2023-12-30T05:19:34.526Z,100665.41
2023-12-30T05:22:01.272Z,100669.03
2023-12-30T05:24:27.888Z,100681.47
2023-12-30T05:26:54.523Z,100684.13
2023-12-30T05:29:21.846Z,100684.13
2023-12-30T05:31:49.264Z,100695.66
2023-12-30T05:34:16.107Z,100692.09
2023-12-30T05:36:42.807Z,100687.69
2023-12-30T05:39:09.465Z,100691.22
2023-12-30T05:41:36.408Z,100698.34
2023-12-30T05:44:03.096Z,100695.69
2023-12-30T05:46:31.911Z,100698.34
2023-12-30T05:48:58.722Z,100700.09
2023-12-30T05:51:25.359Z,100697.44
2023-12-30T05:53:51.972Z,100701.00
2023-12-30T05:56:23.004Z,100693.88
2023-12-30T05:58:50.555Z,100688.59
2023-12-30T06:01:17.369Z,100692.97
2023-12-30T06:03:44.843Z,100704.56
2023-12-30T06:06:11.529Z,100702.75
2023-12-30T06:08:38.166Z,100695.69
2023-12-30T06:11:05.156Z,100698.34
2023-12-30T06:13:33.257Z,100693.03
2023-12-30T06:16:00.095Z,100713.44
2023-12-30T06:18:31.998Z,100717.00
2023-12-30T06:20:59.880Z,100718.75
2023-12-30T06:23:29.931Z,100719.63
2023-12-30T06:25:56.609Z,100731.19
2023-12-30T06:28:25.654Z,100732.94
2023-12-30T06:30:52.655Z,100728.53
2023-12-30T06:33:21.553Z,100720.53
2023-12-30T06:35:48.180Z,100717.88
2023-12-30T06:38:18.443Z,100724.09
2023-12-30T06:40:47.784Z,100714.31
2023-12-30T06:43:14.953Z,100724.06
2023-12-30T06:45:41.728Z,100724.97
2023-12-30T06:48:08.484Z,100728.50
2023-12-30T06:50:35.297Z,100721.44
2023-12-30T06:53:02.391Z,100731.19
2023-12-30T06:55:35.223Z,100738.31
2023-12-30T06:58:09.430Z,100740.03
2023-12-30T07:00:36.675Z,100740.94
2023-12-30T07:03:03.674Z,100750.72
2023-12-30T07:05:36.987Z,100743.59
2023-12-30T07:08:03.995Z,100752.50
2023-12-30T07:10:30.638Z,100762.25
2023-12-30T07:12:57.323Z,100772.00
2023-12-30T07:15:24.014Z,100769.38
2023-12-30T07:17:50.791Z,100780.88
2023-12-30T07:20:17.773Z,100782.56
2023-12-30T07:22:45.102Z,100780.72
2023-12-30T07:25:12.750Z,100794.88
2023-12-30T07:27:39.488Z,100792.94
2023-12-30T07:30:06.763Z,100790.16
2023-12-30T07:32:33.502Z,100801.50
2023-12-30T07:35:01.009Z,100803.03
2023-12-30T07:37:28.862Z,100808.22
2023-12-30T07:39:55.879Z,100816.88
2023-12-30T07:42:23.876Z,100811.28
2023-12-30T07:44:51.602Z,100820.09
2023-12-30T07:47:18.219Z,100830.69
2023-12-30T07:49:44.928Z,100826.22
2023-12-30T07:52:11.919Z,100826.13
2023-12-30T07:54:38.498Z,100828.00
2023-12-30T07:57:05.290Z,100832.38
2023-12-30T07:59:32.078Z,100831.69
2023-12-30T08:01:58.787Z,100832.66
2023-12-30T08:04:25.827Z,100832.72
2023-12-30T08:06:52.745Z,100850.59
2023-12-30T08:09:19.353Z,100851.56
2023-12-30T08:11:54.816Z,100854.25
2023-12-30T08:14:29.290Z,100852.47
2023-12-30T08:16:55.993Z,100863.03
2023-12-30T08:19:22.646Z,100862.31
2023-12-30T08:21:49.347Z,100884.63
2023-12-30T08:24:17.888Z,100886.50
2023-12-30T08:26:44.702Z,100891.88
2023-12-30T08:29:11.417Z,100893.69
2023-12-30T08:31:38.180Z,100897.28
2023-12-30T08:34:05.085Z,100899.13
2023-12-30T08:36:31.860Z,100896.50
2023-12-30T08:38:58.512Z,100901.00
2023-12-30T08:41:29.015Z,100899.22
2023-12-30T08:43:58.473Z,100901.09
2023-12-30T08:46:25.286Z,100908.22
2023-12-30T08:48:52.037Z,100891.28
2023-12-30T08:51:18.740Z,100895.78
2023-12-30T08:53:45.426Z,100907.41
2023-12-30T08:56:12.487Z,100912.75
2023-12-30T08:58:39.226Z,100919.03
2023-12-30T09:01:07.214Z,100911.00
2023-12-30T09:03:34.025Z,100918.19
2023-12-30T09:06:00.795Z,100908.41
2023-12-30T09:08:28.068Z,100908.41
2023-12-30T09:10:54.938Z,100911.94
2023-12-30T09:13:21.629Z,100908.44
2023-12-30T09:15:48.339Z,100904.91
2023-12-30T09:18:15.737Z,100910.28
2023-12-30T09:20:42.855Z,100914.69
2023-12-30T09:23:09.470Z,100917.38
2023-12-30T09:25:38.587Z,100924.50
2023-12-30T09:28:06.078Z,100935.16
2023-12-30T09:30:32.813Z,100936.97
2023-12-30T09:32:59.691Z,100942.31
2023-12-30T09:35:26.470Z,100940.50
2023-12-30T09:37:53.224Z,100951.19
2023-12-30T09:40:19.935Z,100945.91
2023-12-30T09:42:49.549Z,100952.06
2023-12-30T09:45:16.728Z,100953.88
2023-12-30T09:47:45.793Z,100954.75
2023-12-30T09:50:12.517Z,100954.75
2023-12-30T09:52:39.173Z,100955.66
2023-12-30T09:55:06.143Z,100952.09
2023-12-30T09:57:32.757Z,100956.56
2023-12-30T10:00:00.156Z,100949.41
2023-12-30T10:02:26.790Z,100959.25
2023-12-30T10:04:54.711Z,100961.78
2023-12-30T10:07:22.261Z,100961.78
2023-12-30T10:09:51.633Z,100966.28
2023-12-30T10:12:18.722Z,100966.28
2023-12-30T10:14:47.634Z,100973.44
2023-12-30T10:17:14.867Z,100971.63
2023-12-30T10:19:41.578Z,100976.94
2023-12-30T10:22:09.187Z,100976.06
2023-12-30T10:24:35.840Z,100962.66
2023-12-30T10:27:04.454Z,100962.69
2023-12-30T10:29:42.730Z,100974.22
2023-12-30T10:32:13.891Z,100965.31
2023-12-30T10:34:41.954Z,100970.66
2023-12-30T10:37:09.938Z,100976.00
2023-12-30T10:39:38.474Z,100968.88
2023-12-30T10:42:06.137Z,100978.63
2023-12-30T10:44:32.746Z,100963.50
2023-12-30T10:47:01.167Z,100966.16
2023-12-30T10:49:28.146Z,100974.19
2023-12-30T10:51:55.625Z,100976.88
2023-12-30T10:54:35.886Z,100975.97
2023-12-30T10:57:07.585Z,100979.53
2023-12-30T10:59:37.110Z,100983.09
2023-12-30T11:02:04.373Z,100975.97
2023-12-30T11:04:31.064Z,100977.75
2023-12-30T11:06:58.349Z,100974.16
2023-12-30T11:09:26.143Z,100974.09
2023-12-30T11:11:57.558Z,100976.84
2023-12-30T11:14:24.247Z,100974.13
2023-12-30T11:16:51.765Z,100969.63
2023-12-30T11:19:32.684Z,100979.47
2023-12-30T11:22:06.101Z,100979.44
2023-12-30T11:24:34.070Z,100980.34
2023-12-30T11:27:00.675Z,100983.00
2023-12-30T11:29:28.948Z,100978.53
2023-12-30T11:31:57.647Z,100976.75
2023-12-30T11:34:28.249Z,100983.88
2023-12-30T11:36:55.316Z,100982.91
2023-12-30T11:39:27.901Z,100977.59
2023-12-30T11:41:54.707Z,100982.06
2023-12-30T11:44:22.756Z,100982.91
2023-12-30T11:46:49.880Z,100991.78
2023-12-30T11:49:34.667Z,100991.78
2023-12-30T11:52:06.051Z,100988.22
2023-12-30T11:54:36.904Z,100989.13
2023-12-30T11:57:07.530Z,100989.97
2023-12-30T11:59:34.578Z,100981.94
2023-12-30T12:02:09.235Z,100981.94
2023-12-30T12:04:37.175Z,100976.53
2023-12-30T12:07:03.959Z,100972.09
2023-12-30T12:09:30.646Z,100971.28
2023-12-30T12:11:58.888Z,100986.34
2023-12-30T12:14:26.292Z,100971.31
2023-12-30T12:16:52.934Z,100975.75
2023-12-30T12:19:19.826Z,100980.28
2023-12-30T12:21:46.488Z,100978.47
2023-12-30T12:24:13.109Z,100979.34
2023-12-30T12:26:39.800Z,100980.25
2023-12-30T12:29:06.670Z,100975.81
2023-12-30T12:31:33.331Z,100979.34
2023-12-30T12:34:01.822Z,100978.50
2023-12-30T12:36:28.711Z,100983.84
2023-12-30T12:38:55.413Z,100974.03
2023-12-30T12:41:22.059Z,100971.41
2023-12-30T12:43:49.109Z,100974.97
2023-12-30T12:46:16.428Z,100975.88
2023-12-30T12:48:43.191Z,100980.34
2023-12-30T12:51:09.820Z,100970.56
2023-12-30T12:53:36.923Z,100965.22
2023-12-30T12:56:05.839Z,100961.69
2023-12-30T12:58:34.079Z,100962.59
2023-12-30T13:01:00.918Z,100951.03
2023-12-30T13:03:27.656Z,100951.03
2023-12-30T13:05:54.289Z,100946.56
2023-12-30T13:08:22.205Z,100956.38
2023-12-30T13:10:52.438Z,100949.25
2023-12-30T13:13:19.325Z,100944.84
2023-12-30T13:15:46.741Z,100942.13
2023-12-30T13:18:19.372Z,100938.56
2023-12-30T13:20:47.298Z,100931.44
2023-12-30T13:23:15.021Z,100927.84
2023-12-30T13:25:43.382Z,100926.94
2023-12-30T13:28:10.240Z,100918.91
2023-12-30T13:30:37.597Z,100918.06
2023-12-30T13:33:10.078Z,100927.88
2023-12-30T13:35:38.808Z,100922.50
2023-12-30T13:38:15.241Z,100926.06
2023-12-30T13:40:43.300Z,100931.44
2023-12-30T13:43:13.341Z,100935.03
2023-12-30T13:45:44.492Z,100931.44
2023-12-30T13:48:43.295Z,100928.75
2023-12-30T13:51:12.649Z,100926.09
2023-12-30T13:53:39.653Z,100917.16
2023-12-30T13:56:07.373Z,100918.09
2023-12-30T13:58:34.749Z,100919.84
2023-12-30T14:01:01.576Z,100915.38
2023-12-30T14:03:28.600Z,100916.31
2023-12-30T14:05:55.959Z,100915.44
2023-12-30T14:08:36.596Z,100902.94
2023-12-30T14:11:21.690Z,100908.28
2023-12-30T14:13:51.195Z,100902.94
2023-12-30T14:16:18.259Z,100904.75
2023-12-30T14:18:49.156Z,100905.63
2023-12-30T14:21:17.489Z,100901.19
2023-12-30T14:23:44.461Z,100901.16
2023-12-30T14:26:11.081Z,100898.47
2023-12-30T14:28:39.404Z,100906.50
2023-12-30T14:31:06.841Z,100897.59
2023-12-30T14:33:36.893Z,100902.97
2023-12-30T14:36:05.739Z,100892.31
2023-12-30T14:38:32.317Z,100902.09
2023-12-30T14:40:58.986Z,100894.97
2023-12-30T14:43:25.634Z,100894.97
2023-12-30T14:45:52.928Z,100897.63
2023-12-30T14:48:19.701Z,100895.81
2023-12-30T14:50:46.419Z,100898.53
2023-12-30T14:53:13.347Z,100896.72
2023-12-30T14:55:40.160Z,100894.06
2023-12-30T14:58:09.703Z,100901.16
2023-12-30T15:00:37.012Z,100894.97
2023-12-30T15:03:04.424Z,100898.50
2023-12-30T15:05:31.270Z,100911.81
2023-12-30T15:07:58.290Z,100894.03
2023-12-30T15:10:25.227Z,100897.63
2023-12-30T15:12:55.159Z,100887.81
2023-12-30T15:15:21.817Z,100896.72
2023-12-30T15:17:48.505Z,100896.69
2023-12-30T15:20:16.894Z,100893.09
2023-12-30T15:22:43.599Z,100895.78
2023-12-30T15:25:13.053Z,100886.00
2023-12-30T15:27:41.766Z,100890.44
2023-12-30T15:30:09.811Z,100886.88
2023-12-30T15:32:37.163Z,100883.34
2023-12-30T15:35:04.264Z,100883.34
2023-12-30T15:37:30.923Z,100881.56
2023-12-30T15:39:57.539Z,100885.09
2023-12-30T15:42:24.132Z,100885.13
2023-12-30T15:44:50.715Z,100881.56
2023-12-30T15:47:20.616Z,100882.47
2023-12-30T15:49:47.334Z,100879.78
2023-12-30T15:52:14.397Z,100878.00
2023-12-30T15:54:41.037Z,100869.09
2023-12-30T15:57:07.654Z,100877.09
2023-12-30T15:59:35.340Z,100875.31
2023-12-30T16:02:03.062Z,100869.97
2023-12-30T16:04:29.910Z,100864.44
2023-12-30T16:06:57.426Z,100869.75
2023-12-30T16:09:24.040Z,100864.44
2023-12-30T16:11:50.770Z,100856.44
2023-12-30T16:14:17.377Z,100856.44
2023-12-30T16:16:47.225Z,100851.06
2023-12-30T16:19:15.834Z,100843.97
2023-12-30T16:21:42.892Z,100829.72
2023-12-30T16:24:09.526Z,100835.09
2023-12-30T16:26:36.494Z,100845.72
2023-12-30T16:29:04.073Z,100843.06
2023-12-30T16:31:30.913Z,100843.03
2023-12-30T16:33:57.752Z,100836.84
2023-12-30T16:36:25.653Z,100828.84
2023-12-30T16:38:52.798Z,100830.59
2023-12-30T16:41:19.418Z,100833.25
2023-12-30T16:43:46.055Z,100826.13
2023-12-30T16:46:13.236Z,100827.91
2023-12-30T16:48:40.103Z,100828.81
2023-12-30T16:51:06.879Z,100829.75
2023-12-30T16:53:33.510Z,100833.34
2023-12-30T16:56:00.664Z,100831.53
2023-12-30T16:58:31.755Z,100825.31
2023-12-30T17:01:01.090Z,100827.97
2023-12-30T17:03:28.231Z,100826.19
2023-12-30T17:05:54.929Z,100826.16
2023-12-30T17:08:21.534Z,100835.09
2023-12-30T17:10:48.469Z,100820.84
2023-12-30T17:13:15.942Z,100819.03
2023-12-30T17:15:42.554Z,100818.19
2023-12-30T17:18:10.272Z,100817.28
2023-12-30T17:20:37.557Z,100812.81
2023-12-30T17:23:06.738Z,100819.06
2023-12-30T17:25:33.388Z,100806.59
2023-12-30T17:28:00.608Z,100801.25
2023-12-30T17:30:30.197Z,100805.63
2023-12-30T17:32:56.965Z,100805.66
2023-12-30T17:35:24.117Z,100801.19
2023-12-30T17:37:51.071Z,100794.03
2023-12-30T17:40:19.276Z,100802.06
2023-12-30T17:42:46.813Z,100798.50
2023-12-30T17:45:13.712Z,100801.19
2023-12-30T17:47:40.341Z,100802.00
2023-12-30T17:50:11.052Z,100797.50
2023-12-30T17:52:38.535Z,100786.88
2023-12-30T17:55:05.991Z,100799.34
2023-12-30T17:57:32.673Z,100796.69
2023-12-30T17:59:59.310Z,100801.13
2023-12-30T18:02:26.143Z,100797.56
2023-12-30T18:04:53.013Z,100796.72
2023-12-30T18:07:19.750Z,100787.81
2023-12-30T18:09:48.173Z,100794.06
2023-12-30T18:12:16.493Z,100785.09
2023-12-30T18:14:43.786Z,100781.53
2023-12-30T18:17:10.491Z,100775.25
2023-12-30T18:19:38.983Z,100777.94
2023-12-30T18:22:05.703Z,100769.06
2023-12-30T18:24:32.351Z,100773.47
2023-12-30T18:26:59.009Z,100763.66
2023-12-30T18:29:27.157Z,100775.28
2023-12-30T18:31:53.813Z,100769.91
2023-12-30T18:34:20.671Z,100759.19
2023-12-30T18:36:47.332Z,100759.19
2023-12-30T18:39:14.018Z,100763.66
2023-12-30T18:41:40.678Z,100761.84
2023-12-30T18:44:07.729Z,100758.31
2023-12-30T18:46:35.298Z,100746.72
2023-12-30T18:49:02.296Z,100742.28
2023-12-30T18:51:28.949Z,100740.50
2023-12-30T18:53:56.503Z,100740.56
2023-12-30T18:56:23.141Z,100734.28
2023-12-30T18:58:50.742Z,100736.09
2023-12-30T19:01:17.744Z,100732.53
2023-12-30T19:03:44.554Z,100733.38
2023-12-30T19:06:11.317Z,100737.88
2023-12-30T19:08:38.109Z,100720.09
2023-12-30T19:11:04.961Z,100728.03
2023-12-30T19:13:31.724Z,100720.03
2023-12-30T19:16:01.791Z,100713.84
2023-12-30T19:18:32.357Z,100712.91
2023-12-30T19:20:59.506Z,100714.69
2023-12-30T19:23:26.160Z,100706.69
2023-12-30T19:25:52.866Z,100701.34
2023-12-30T19:28:19.755Z,100702.22
2023-12-30T19:30:46.479Z,100696.81
2023-12-30T19:33:14.063Z,100694.16
2023-12-30T19:35:42.292Z,100679.03
2023-12-30T19:38:09.383Z,100675.47
2023-12-30T19:40:36.078Z,100677.19
2023-12-30T19:43:04.922Z,100681.69
2023-12-30T19:45:31.843Z,100674.53
2023-12-30T19:48:00.129Z,100677.16
2023-12-30T19:50:28.784Z,100672.75
2023-12-30T19:52:56.634Z,100670.97
2023-12-30T19:55:23.575Z,100660.25
2023-12-30T19:57:50.223Z,100663.75
2023-12-30T20:00:17.217Z,100662.00
2023-12-30T20:02:44.592Z,100651.38
2023-12-30T20:05:14.512Z,100643.31
2023-12-30T20:07:41.633Z,100653.97
2023-12-30T20:10:10.550Z,100632.63
2023-12-30T20:12:37.370Z,100638.84
2023-12-30T20:15:06.564Z,100628.16
2023-12-30T20:17:33.221Z,100630.03
2023-12-30T20:20:02.608Z,100624.69
2023-12-30T20:22:29.905Z,100620.25
2023-12-30T20:24:56.556Z,100612.22
2023-12-30T20:27:23.144Z,100610.50
2023-12-30T20:29:50.582Z,100606.03
2023-12-30T20:32:17.374Z,100610.50
2023-12-30T20:34:44.043Z,100607.81
2023-12-30T20:37:10.728Z,100600.69
2023-12-30T20:39:37.415Z,100591.75
2023-12-30T20:42:04.582Z,100596.19
2023-12-30T20:44:31.233Z,100589.16
2023-12-30T20:46:57.945Z,100586.41
2023-12-30T20:49:26.208Z,100588.25
2023-12-30T20:51:52.870Z,100590.00
2023-12-30T20:54:19.529Z,100594.53
2023-12-30T20:56:46.624Z,100594.47
2023-12-30T20:59:20.977Z,100596.19
2023-12-30T21:01:48.733Z,100591.75
2023-12-30T21:04:15.897Z,100597.97
2023-12-30T21:06:45.541Z,100587.34
2023-12-30T21:09:12.162Z,100594.47
2023-12-30T21:11:41.826Z,100587.34
2023-12-30T21:14:10.509Z,100587.41
2023-12-30T21:16:37.498Z,100574.88
2023-12-30T21:19:04.448Z,100574.84
2023-12-30T21:21:31.110Z,100573.97
2023-12-30T21:23:57.804Z,100571.31
2023-12-30T21:26:24.676Z,100560.63
2023-12-30T21:28:51.311Z,100557.09
2023-12-30T21:31:18.084Z,100554.31
2023-12-30T21:33:44.893Z,100542.81
2023-12-30T21:36:13.214Z,100541.06
2023-12-30T21:38:41.001Z,100541.13
2023-12-30T21:41:07.617Z,100540.16
2023-12-30T21:43:34.692Z,100539.19
2023-12-30T21:46:01.568Z,100538.16
2023-12-30T21:48:28.270Z,100535.59
2023-12-30T21:50:57.025Z,100529.44
2023-12-30T21:53:23.650Z,100530.38
2023-12-30T21:55:50.310Z,100526.84
2023-12-30T21:58:17.099Z,100523.28
2023-12-30T22:00:43.814Z,100517.00
2023-12-30T22:03:11.116Z,100529.47
2023-12-30T22:05:37.830Z,100511.66
2023-12-30T22:08:04.855Z,100511.63
2023-12-30T22:10:31.842Z,100506.31
2023-12-30T22:12:58.571Z,100505.44
2023-12-30T22:15:27.904Z,100506.31
2023-12-30T22:17:54.549Z,100509.00
2023-12-30T22:20:21.212Z,100508.09
2023-12-30T22:22:49.409Z,100512.53
2023-12-30T22:25:16.509Z,100507.19
2023-12-30T22:27:43.151Z,100512.53
2023-12-30T22:30:10.116Z,100507.19
2023-12-30T22:32:36.879Z,100496.47
2023-12-30T22:35:06.637Z,100503.63
2023-12-30T22:37:33.263Z,100495.66
2023-12-30T22:39:59.866Z,100489.41
2023-12-30T22:42:26.504Z,100496.50
2023-12-30T22:44:53.125Z,100488.44
2023-12-30T22:47:19.717Z,100475.13
2023-12-30T22:49:46.312Z,100463.59
2023-12-30T22:52:13.773Z,100464.41
2023-12-30T22:54:41.499Z,100466.22
2023-12-30T22:57:11.098Z,100471.59
2023-12-30T22:59:37.829Z,100469.88
2023-12-30T23:02:05.585Z,100469.88
2023-12-30T23:04:32.300Z,100455.56
2023-12-30T23:07:00.090Z,100446.66
2023-12-30T23:09:26.885Z,100460.91
2023-12-30T23:11:55.720Z,100451.19
2023-12-30T23:14:24.676Z,100455.56
2023-12-30T23:16:51.610Z,100457.34
2023-12-30T23:19:18.327Z,100446.72
2023-12-30T23:21:44.983Z,100436.94
2023-12-30T23:24:11.591Z,100430.69
2023-12-30T23:26:38.222Z,100433.34
2023-12-30T23:29:05.592Z,100429.78
2023-12-30T23:31:32.522Z,100426.19
2023-12-30T23:33:59.290Z,100425.28
2023-12-30T23:36:25.944Z,100414.69
2023-12-30T23:38:52.540Z,100416.47
2023-12-30T23:41:19.175Z,100390.63
2023-12-30T23:43:45.926Z,100394.16
2023-12-30T23:46:12.834Z,100386.16
2023-12-30T23:48:39.517Z,100380.84
2023-12-30T23:51:06.116Z,100384.41
2023-12-30T23:53:32.727Z,100371.06
2023-12-30T23:56:02.338Z,100372.03
2023-12-30T23:58:29.087Z,100364.84
